Time;durP1;ratioP1;P1;durP2;ratioP2;P2;SDS_P1;SDS_P2;PMS_P1;PMS_P2;Temp;Humidity;BMP_temperature;BMP_pressure;BME280_temperature;BME280_humidity;BME280_pressure;Samples;Min_cycle;Max_cycle;Signal;HPM_P1;HPM_P2
2023/04/04 00:01:16;;;;;;;6.17;2.43;;;2.90;99.90;;;;;;4928560;28;38689;-71
2023/04/04 00:03:42;;;;;;;3.80;2.30;;;2.90;99.90;;;;;;4920246;28;37411;-70
2023/04/04 00:06:08;;;;;;;4.77;2.50;;;2.90;99.90;;;;;;4929889;28;38954;-71
2023/04/04 00:08:34;;;;;;;5.70;2.80;;;2.90;99.90;;;;;;4928420;28;38657;-70
2023/04/04 00:11:00;;;;;;;6.07;2.60;;;2.90;99.90;;;;;;4911576;29;39062;-71
2023/04/04 00:13:27;;;;;;;6.77;2.40;;;2.90;99.90;;;;;;4913289;29;37181;-71
2023/04/04 00:15:54;;;;;;;7.43;2.57;;;2.80;99.90;;;;;;4929464;28;38704;-71
2023/04/04 00:18:20;;;;;;;9.33;3.40;;;2.90;99.90;;;;;;4907885;28;37192;-71
2023/04/04 00:20:46;;;;;;;5.70;2.60;;;2.80;99.90;;;;;;4908636;29;39582;-71
2023/04/04 00:23:12;;;;;;;4.60;2.30;;;2.80;99.90;;;;;;4926745;28;38299;-71
2023/04/04 00:25:39;;;;;;;8.30;2.60;;;2.80;99.90;;;;;;4911654;29;37966;-71
2023/04/04 00:28:05;;;;;;;6.07;2.50;;;2.70;99.90;;;;;;4926481;28;36920;-71
2023/04/04 00:30:33;;;;;;;5.43;2.73;;;2.70;99.90;;;;;;4926451;28;38374;-70
2023/04/04 00:33:00;;;;;;;5.57;2.53;;;2.70;99.90;;;;;;4926644;28;39403;-71
2023/04/04 00:35:26;;;;;;;8.10;2.27;;;2.70;99.90;;;;;;4911554;29;38066;-72
2023/04/04 00:37:52;;;;;;;5.33;2.33;;;2.60;99.90;;;;;;4926088;28;37105;-71
2023/04/04 00:40:18;;;;;;;5.27;2.43;;;2.60;99.90;;;;;;4925865;28;39866;-71
2023/04/04 00:42:45;;;;;;;5.23;3.17;;;2.60;99.90;;;;;;4906646;29;38066;-71
2023/04/04 00:45:11;;;;;;;6.70;2.60;;;2.50;99.90;;;;;;4924414;29;37824;-71
2023/04/04 00:47:38;;;;;;;8.00;2.80;;;2.40;99.90;;;;;;4927377;28;36764;-71
2023/04/04 00:50:06;;;;;;;4.77;2.33;;;2.30;99.90;;;;;;4913568;29;37621;-71
2023/04/04 00:52:32;;;;;;;4.63;2.33;;;2.20;99.90;;;;;;4910804;29;47246;-71
2023/04/04 00:54:59;;;;;;;4.77;2.30;;;2.20;99.90;;;;;;4922677;28;37088;-71
2023/04/04 00:57:28;;;;;;;6.20;2.50;;;2.10;99.90;;;;;;4926117;28;38159;-71
2023/04/04 00:59:56;;;;;;;7.10;2.93;;;2.00;99.90;;;;;;4915894;28;37619;-71
2023/04/04 01:02:23;;;;;;;8.00;3.33;;;1.90;99.90;;;;;;5369701;23;37457;-80
2023/04/04 01:04:50;;;;;;;7.70;3.03;;;1.80;99.90;;;;;;4930025;28;37947;-81
2023/04/04 01:07:18;;;;;;;6.00;2.93;;;1.80;99.90;;;;;;4923131;29;37084;-82
2023/04/04 01:09:47;;;;;;;5.63;2.87;;;1.80;99.90;;;;;;4929745;29;38575;-81
2023/04/04 01:12:13;;;;;;;5.00;2.57;;;1.70;99.90;;;;;;4929240;29;37613;-81
2023/04/04 01:14:39;;;;;;;5.60;2.67;;;1.70;99.90;;;;;;4939047;29;36946;-81
2023/04/04 01:17:07;;;;;;;11.90;3.13;;;1.70;99.90;;;;;;4935654;29;38047;-81
2023/04/04 01:19:37;;;;;;;5.47;3.00;;;1.60;99.90;;;;;;4913971;29;37839;-81
2023/04/04 01:22:11;;;;;;;5.87;2.53;;;1.50;99.90;;;;;;4916328;29;37316;-81
2023/04/04 01:24:40;;;;;;;7.40;2.77;;;1.50;99.90;;;;;;4935829;29;36792;-81
2023/04/04 01:27:06;;;;;;;8.27;2.93;;;1.60;99.90;;;;;;4937330;29;35903;-80
2023/04/04 01:29:34;;;;;;;6.10;2.70;;;1.60;99.90;;;;;;4937448;29;37544;-82
2023/04/04 01:32:06;;;;;;;6.20;3.27;;;1.60;99.90;;;;;;4920781;29;38292;-80
2023/04/04 01:34:43;;;;;;;7.05;3.40;;;1.60;99.90;;;;;;4942597;28;47533;-82
2023/04/04 01:37:43;;;;;;;7.47;3.17;;;1.70;99.90;;;;;;4937707;29;37357;-81
2023/04/04 01:40:33;;;;;;;12.77;3.37;;;1.70;99.90;;;;;;4926706;29;40351;-81
2023/04/04 01:43:00;;;;;;;8.00;3.10;;;1.70;99.90;;;;;;4921986;29;37301;-81
2023/04/04 01:45:28;;;;;;;8.73;3.17;;;1.70;99.90;;;;;;4924209;29;39146;-82
2023/04/04 01:47:55;;;;;;;4.30;2.80;;;1.60;99.90;;;;;;4929602;29;36176;-82
2023/04/04 01:50:22;;;;;;;10.13;3.80;;;1.70;99.90;;;;;;4910889;29;37939;-81
2023/04/04 01:52:48;;;;;;;6.20;3.23;;;1.60;99.90;;;;;;4922781;29;39468;-82
2023/04/04 01:55:15;;;;;;;8.23;3.20;;;1.60;99.90;;;;;;4927020;29;36491;-82
2023/04/04 01:57:41;;;;;;;7.97;3.10;;;1.60;99.90;;;;;;4928173;29;38487;-82
2023/04/04 02:00:07;;;;;;;8.87;3.57;;;1.50;99.90;;;;;;4927164;29;39322;-82
2023/04/04 02:02:33;;;;;;;6.07;2.70;;;1.50;99.90;;;;;;4930216;29;38947;-82
2023/04/04 02:05:00;;;;;;;5.00;3.13;;;1.50;99.90;;;;;;4938457;29;36651;-80
2023/04/04 02:07:27;;;;;;;7.17;3.60;;;1.50;99.90;;;;;;4931749;29;38398;-79
2023/04/04 02:09:53;;;;;;;7.30;3.33;;;1.40;99.90;;;;;;4942370;29;38179;-80
2023/04/04 02:12:19;;;;;;;8.83;3.40;;;1.30;99.90;;;;;;4938132;29;38597;-81
2023/04/04 02:14:45;;;;;;;5.90;3.10;;;1.20;99.90;;;;;;4932601;29;36902;-78
2023/04/04 02:17:12;;;;;;;8.27;3.20;;;1.30;99.90;;;;;;4916558;29;36196;-82
2023/04/04 02:19:39;;;;;;;5.73;3.33;;;1.30;99.90;;;;;;4936969;29;37519;-81
2023/04/04 02:22:05;;;;;;;7.57;3.37;;;1.20;99.90;;;;;;4931523;29;37342;-80
2023/04/04 02:24:31;;;;;;;11.13;3.17;;;1.20;99.90;;;;;;4938076;29;37785;-80
2023/04/04 02:26:58;;;;;;;6.87;3.33;;;1.30;99.90;;;;;;4923626;29;37987;-81
2023/04/04 02:29:24;;;;;;;4.20;3.20;;;1.40;99.90;;;;;;4908621;29;38881;-81
2023/04/04 02:31:50;;;;;;;6.27;3.40;;;1.50;99.90;;;;;;4924042;29;37927;-80
2023/04/04 02:34:17;;;;;;;6.80;3.17;;;1.50;99.90;;;;;;4927209;29;37097;-81
2023/04/04 02:36:43;;;;;;;6.90;3.33;;;1.60;99.90;;;;;;4932771;29;38752;-81
2023/04/04 02:39:09;;;;;;;7.50;3.10;;;1.60;99.90;;;;;;4915483;29;37721;-80
2023/04/04 02:41:35;;;;;;;10.87;3.43;;;1.60;99.90;;;;;;4931562;29;37390;-80
2023/04/04 02:44:01;;;;;;;5.73;3.37;;;1.60;99.90;;;;;;4912193;29;36884;-78
2023/04/04 02:46:27;;;;;;;8.20;3.70;;;1.60;99.90;;;;;;4928960;29;38272;-81
2023/04/04 02:48:53;;;;;;;6.13;2.80;;;1.60;99.90;;;;;;4926988;29;40236;-80
2023/04/04 02:51:20;;;;;;;9.37;3.27;;;1.70;99.90;;;;;;4937103;29;38509;-81
2023/04/04 02:53:46;;;;;;;7.27;3.50;;;1.70;99.90;;;;;;4946910;29;38781;-80
2023/04/04 02:56:12;;;;;;;9.03;3.30;;;1.60;99.90;;;;;;4928044;29;37520;-80
2023/04/04 02:58:38;;;;;;;6.57;3.70;;;1.60;99.90;;;;;;4941381;28;37691;-83
2023/04/04 03:01:04;;;;;;;7.30;3.30;;;1.60;99.90;;;;;;4907221;29;37858;-83
2023/04/04 03:03:35;;;;;;;6.50;3.87;;;1.60;99.90;;;;;;4899019;29;37275;-82
2023/04/04 03:06:01;;;;;;;8.40;3.20;;;1.50;99.90;;;;;;4912373;29;38115;-80
2023/04/04 03:08:27;;;;;;;8.60;3.87;;;1.50;99.90;;;;;;4904694;29;38076;-81
2023/04/04 03:10:54;;;;;;;8.53;3.80;;;1.40;99.90;;;;;;4894265;29;37157;-80
2023/04/04 03:13:20;;;;;;;8.33;4.37;;;1.30;99.90;;;;;;4905164;29;37579;-80
2023/04/04 03:15:48;;;;;;;6.20;3.20;;;1.20;99.90;;;;;;4920725;29;37428;-80
2023/04/04 03:18:14;;;;;;;9.90;3.60;;;1.20;99.90;;;;;;4910277;29;39680;-80
2023/04/04 03:20:41;;;;;;;8.27;3.77;;;1.10;99.90;;;;;;4914436;29;39936;-80
2023/04/04 03:23:07;;;;;;;5.57;2.87;;;1.10;99.90;;;;;;4913165;29;37266;-80
2023/04/04 03:25:33;;;;;;;8.53;4.93;;;1.00;99.90;;;;;;4897780;29;36164;-81
2023/04/04 03:28:08;;;;;;;7.53;3.73;;;1.00;99.90;;;;;;4922560;29;39979;-81
2023/04/04 03:30:34;;;;;;;8.20;4.07;;;0.90;99.90;;;;;;4899043;29;47413;-80
2023/04/04 03:33:08;;;;;;;5.80;3.87;;;0.90;99.90;;;;;;4899893;29;36825;-80
2023/04/04 03:35:38;;;;;;;11.23;4.23;;;0.90;99.90;;;;;;4914091;29;48232;-80
2023/04/04 03:38:05;;;;;;;8.03;4.30;;;0.80;99.90;;;;;;4909014;29;40559;-80
2023/04/04 03:40:31;;;;;;;12.57;4.43;;;0.70;99.90;;;;;;4921123;29;39535;-80
2023/04/04 03:42:57;;;;;;;11.33;4.27;;;0.70;99.90;;;;;;4923978;29;39072;-80
2023/04/04 03:45:24;;;;;;;7.53;4.03;;;0.60;99.90;;;;;;4902326;29;36640;-80
2023/04/04 03:47:50;;;;;;;12.80;4.03;;;0.70;99.90;;;;;;4927581;29;39431;-81
2023/04/04 03:50:16;;;;;;;8.90;4.53;;;0.60;99.90;;;;;;4917866;29;38736;-80
2023/04/04 03:52:43;;;;;;;9.73;4.07;;;0.60;99.90;;;;;;4912928;29;39010;-79
2023/04/04 03:55:10;;;;;;;10.17;5.33;;;0.60;99.90;;;;;;4897750;29;37322;-81
2023/04/04 03:57:36;;;;;;;8.07;4.50;;;0.60;99.90;;;;;;4900827;29;37889;-80
2023/04/04 04:00:03;;;;;;;8.93;4.60;;;0.50;99.90;;;;;;4911588;29;38784;-80
2023/04/04 04:02:30;;;;;;;9.03;4.13;;;0.50;99.90;;;;;;4917526;29;37869;-81
2023/04/04 04:04:56;;;;;;;11.60;4.90;;;0.50;99.90;;;;;;4927592;29;37297;-80
2023/04/04 04:07:24;;;;;;;13.20;4.63;;;0.50;99.90;;;;;;4933671;29;37906;-83
2023/04/04 04:09:52;;;;;;;8.70;4.47;;;0.40;99.90;;;;;;4943675;29;37604;-80
2023/04/04 04:12:18;;;;;;;6.83;4.20;;;0.40;99.90;;;;;;4917930;29;38509;-80
2023/04/04 04:14:44;;;;;;;8.73;4.10;;;0.40;99.90;;;;;;4943451;29;38742;-80
2023/04/04 04:17:10;;;;;;;7.30;4.80;;;0.30;99.90;;;;;;4933592;29;38184;-80
2023/04/04 04:19:36;;;;;;;14.90;4.97;;;0.30;99.90;;;;;;4946489;28;37703;-80
2023/04/04 04:22:02;;;;;;;11.97;4.83;;;0.30;99.90;;;;;;4933820;29;37183;-80
2023/04/04 04:24:29;;;;;;;10.20;5.33;;;0.40;99.90;;;;;;4944974;29;37218;-80
2023/04/04 04:26:55;;;;;;;10.03;4.87;;;0.40;99.90;;;;;;4929253;29;38988;-80
2023/04/04 04:29:21;;;;;;;8.90;5.30;;;0.40;99.90;;;;;;4927526;29;37692;-80
2023/04/04 04:31:47;;;;;;;11.57;5.23;;;0.40;99.90;;;;;;4931265;29;37558;-80
2023/04/04 04:34:14;;;;;;;8.00;5.20;;;0.30;99.90;;;;;;4908752;29;38540;-76
2023/04/04 04:36:40;;;;;;;9.33;4.97;;;0.30;99.90;;;;;;4936206;29;38632;-81
2023/04/04 04:39:06;;;;;;;8.37;5.47;;;0.30;99.90;;;;;;4934904;29;37154;-79
2023/04/04 04:41:32;;;;;;;10.07;5.67;;;0.20;99.90;;;;;;4926903;29;39635;-79
2023/04/04 04:43:59;;;;;;;8.43;5.17;;;0.20;99.90;;;;;;4919963;29;37428;-79
2023/04/04 04:46:25;;;;;;;8.43;4.83;;;0.20;99.90;;;;;;4915579;29;38785;-79
2023/04/04 04:48:53;;;;;;;11.40;5.57;;;0.20;99.90;;;;;;4935342;29;39542;-80
2023/04/04 04:51:19;;;;;;;9.97;4.83;;;0.10;99.90;;;;;;4934331;29;38309;-80
2023/04/04 04:53:45;;;;;;;12.03;5.47;;;0.10;99.90;;;;;;4903883;29;36281;-80
2023/04/04 04:56:11;;;;;;;10.30;5.50;;;0.10;99.90;;;;;;4934944;28;40189;-80
2023/04/04 04:58:37;;;;;;;8.90;5.13;;;0.10;99.90;;;;;;4924007;29;38661;-80
2023/04/04 05:01:03;;;;;;;9.73;5.70;;;0.10;99.90;;;;;;4907931;29;37302;-78
2023/04/04 05:03:29;;;;;;;11.10;6.03;;;0.10;99.90;;;;;;4928393;29;37312;-80
2023/04/04 05:05:56;;;;;;;11.43;5.13;;;0.20;99.90;;;;;;4936996;29;38793;-80
2023/04/04 05:08:22;;;;;;;11.80;5.90;;;0.20;99.90;;;;;;4925395;29;38078;-79
2023/04/04 05:10:49;;;;;;;11.80;5.23;;;0.20;99.90;;;;;;4913164;29;38996;-80
2023/04/04 05:13:16;;;;;;;9.37;5.13;;;0.20;99.90;;;;;;4913512;29;37300;-79
2023/04/04 05:15:42;;;;;;;9.57;5.40;;;0.20;99.90;;;;;;4914216;29;37517;-75
2023/04/04 05:18:08;;;;;;;9.90;5.83;;;0.10;99.90;;;;;;4909049;29;37539;-75
2023/04/04 05:20:35;;;;;;;11.30;5.60;;;0.10;99.90;;;;;;4910608;28;38077;-77
2023/04/04 05:23:01;;;;;;;10.93;5.70;;;0.10;99.90;;;;;;4910634;29;36989;-79
2023/04/04 05:25:27;;;;;;;10.13;5.53;;;0.10;99.90;;;;;;4907780;29;46342;-79
2023/04/04 05:27:56;;;;;;;12.87;6.93;;;0.10;99.90;;;;;;4928783;29;39209;-79
2023/04/04 05:30:28;;;;;;;13.40;6.30;;;0.10;99.90;;;;;;4924970;29;37552;-79
2023/04/04 05:32:54;;;;;;;11.70;6.10;;;0.10;99.90;;;;;;4922257;29;38499;-79
2023/04/04 05:35:21;;;;;;;10.27;5.87;;;0.10;99.90;;;;;;4922528;29;40099;-79
2023/04/04 05:37:47;;;;;;;11.87;6.30;;;0.00;99.90;;;;;;4931498;29;39513;-79
2023/04/04 05:40:14;;;;;;;12.50;6.17;;;0.00;99.90;;;;;;4929389;29;37430;-79
2023/04/04 05:42:41;;;;;;;11.70;5.67;;;0.10;99.90;;;;;;4919507;29;37352;-79
2023/04/04 05:45:08;;;;;;;11.30;5.73;;;0.20;99.90;;;;;;4925898;29;39314;-78
2023/04/04 05:47:34;;;;;;;7.73;5.53;;;0.10;99.90;;;;;;4920013;29;37319;-77
2023/04/04 05:50:00;;;;;;;13.93;6.23;;;0.10;99.90;;;;;;4907850;29;39726;-78
2023/04/04 05:52:26;;;;;;;10.03;5.97;;;0.10;99.90;;;;;;4897347;29;37041;-78
2023/04/04 05:54:53;;;;;;;9.23;5.70;;;0.20;99.90;;;;;;4916990;29;39236;-77
2023/04/04 05:57:19;;;;;;;9.67;6.17;;;0.20;99.90;;;;;;4908900;29;38858;-78
2023/04/04 05:59:46;;;;;;;9.87;5.80;;;0.30;99.90;;;;;;4906940;29;37469;-79
2023/04/04 06:02:12;;;;;;;11.83;7.00;;;0.50;99.90;;;;;;4906529;29;36032;-78
2023/04/04 06:04:39;;;;;;;11.03;6.00;;;0.60;99.90;;;;;;4929910;29;37288;-79
2023/04/04 06:07:05;;;;;;;12.10;6.00;;;0.70;99.90;;;;;;4923964;29;40193;-79
2023/04/04 06:09:31;;;;;;;11.60;6.40;;;0.70;99.90;;;;;;4928112;29;38282;-78
2023/04/04 06:11:57;;;;;;;12.03;6.40;;;0.90;99.90;;;;;;4921307;29;36675;-78
2023/04/04 06:14:24;;;;;;;13.80;6.37;;;0.90;99.90;;;;;;4910841;29;39309;-78
2023/04/04 06:16:50;;;;;;;13.27;6.20;;;1.00;99.90;;;;;;4911012;29;39196;-79
2023/04/04 06:19:16;;;;;;;24.43;7.17;;;1.00;99.90;;;;;;4915404;29;38097;-79
2023/04/04 06:21:42;;;;;;;33.13;7.17;;;1.00;99.90;;;;;;4900588;29;35890;-79
2023/04/04 06:24:08;;;;;;;9.93;5.93;;;1.10;99.90;;;;;;4912665;29;39115;-79
2023/04/04 06:26:34;;;;;;;20.90;7.93;;;1.20;99.90;;;;;;4920068;29;39518;-78
2023/04/04 06:29:00;;;;;;;13.70;6.30;;;1.30;99.90;;;;;;4920551;29;37262;-78
2023/04/04 06:31:26;;;;;;;11.90;5.77;;;1.50;99.90;;;;;;4927057;29;47682;-78
2023/04/04 06:33:52;;;;;;;12.63;6.10;;;1.60;99.90;;;;;;4910374;29;37725;-78
2023/04/04 06:36:19;;;;;;;10.67;6.17;;;1.80;99.90;;;;;;4914717;29;38058;-79
2023/04/04 06:38:45;;;;;;;14.17;6.77;;;2.00;99.90;;;;;;4920665;29;38345;-79
2023/04/04 06:41:12;;;;;;;10.80;5.60;;;2.00;99.90;;;;;;4911598;29;35614;-81
2023/04/04 06:43:38;;;;;;;11.00;6.33;;;2.10;99.90;;;;;;4926070;29;39585;-79
2023/04/04 06:46:04;;;;;;;8.63;5.27;;;2.30;99.90;;;;;;4929421;29;40326;-79
2023/04/04 06:48:30;;;;;;;13.87;5.80;;;2.40;99.90;;;;;;4902779;29;37471;-80
2023/04/04 06:50:56;;;;;;;10.73;5.00;;;2.40;99.90;;;;;;4898952;29;35936;-80
2023/04/04 06:53:23;;;;;;;12.10;5.57;;;2.50;99.90;;;;;;4914239;29;38964;-79
2023/04/04 06:55:50;;;;;;;10.63;4.57;;;2.60;99.90;;;;;;4891443;29;37751;-78
2023/04/04 06:58:16;;;;;;;9.33;5.23;;;2.90;99.90;;;;;;4900468;29;39068;-79
2023/04/04 07:00:42;;;;;;;9.20;4.80;;;3.00;99.90;;;;;;4915130;29;36691;-80
2023/04/04 07:03:08;;;;;;;7.87;5.43;;;3.20;99.90;;;;;;4899527;29;41239;-80
2023/04/04 07:05:38;;;;;;;9.50;4.80;;;3.20;99.90;;;;;;4914353;29;39437;-79
2023/04/04 07:08:05;;;;;;;10.50;4.50;;;3.30;99.90;;;;;;4913210;29;38339;-79
2023/04/04 07:10:31;;;;;;;9.93;5.10;;;3.40;99.90;;;;;;4905181;29;37507;-78
2023/04/04 07:12:57;;;;;;;10.17;4.40;;;3.50;99.90;;;;;;4907987;29;38430;-78
2023/04/04 07:15:23;;;;;;;10.50;4.87;;;3.50;99.90;;;;;;4921133;29;37326;-78
2023/04/04 07:17:50;;;;;;;8.00;3.70;;;3.60;99.90;;;;;;4890004;29;38674;-78
2023/04/04 07:20:16;;;;;;;6.77;3.87;;;3.70;99.90;;;;;;4911065;29;35934;-79
2023/04/04 07:22:43;;;;;;;9.47;4.30;;;4.00;99.90;;;;;;4911731;29;39059;-79
2023/04/04 07:25:09;;;;;;;6.37;3.20;;;4.20;99.90;;;;;;4909536;29;39893;-78
2023/04/04 07:27:35;;;;;;;9.23;3.73;;;4.30;99.90;;;;;;4910228;29;38662;-76
2023/04/04 07:30:03;;;;;;;9.27;3.80;;;4.30;99.90;;;;;;4912045;29;37912;-78
2023/04/04 07:32:29;;;;;;;9.43;3.97;;;4.40;99.90;;;;;;4910154;29;38899;-78
2023/04/04 07:34:55;;;;;;;7.77;4.20;;;4.50;99.90;;;;;;4911805;29;39788;-78
2023/04/04 07:37:21;;;;;;;8.53;3.67;;;4.60;99.90;;;;;;4910884;29;40144;-78
2023/04/04 07:39:50;;;;;;;11.03;4.13;;;4.80;99.90;;;;;;4895666;29;36908;-78
2023/04/04 07:42:21;;;;;;;8.03;4.20;;;4.90;99.90;;;;;;4909573;29;39007;-77
2023/04/04 07:44:51;;;;;;;9.43;3.80;;;4.90;99.90;;;;;;4908078;28;38749;-78
2023/04/04 07:47:17;;;;;;;5.43;3.40;;;4.90;99.90;;;;;;4914813;29;37371;-78
2023/04/04 07:49:44;;;;;;;8.10;3.77;;;5.00;99.90;;;;;;4905391;29;35987;-79
2023/04/04 07:52:10;;;;;;;9.10;4.20;;;5.00;99.90;;;;;;4910186;29;37463;-78
2023/04/04 07:54:37;;;;;;;6.77;3.80;;;5.10;99.90;;;;;;4913363;29;37573;-78
2023/04/04 07:57:08;;;;;;;6.17;3.27;;;5.10;99.90;;;;;;4911430;29;39876;-78
2023/04/04 07:59:37;;;;;;;4.23;2.50;;;5.20;99.90;;;;;;4911095;29;36493;-79
2023/04/04 08:02:03;;;;;;;5.93;2.70;;;5.30;99.90;;;;;;4912631;29;39244;-77
2023/04/04 08:04:29;;;;;;;8.17;2.97;;;5.30;99.90;;;;;;4894738;29;37735;-77
2023/04/04 08:06:56;;;;;;;6.00;3.30;;;5.40;99.90;;;;;;4887460;29;37158;-77
2023/04/04 08:09:22;;;;;;;7.97;3.50;;;5.50;99.90;;;;;;4911187;29;38466;-77
2023/04/04 08:11:48;;;;;;;10.77;2.90;;;5.60;99.90;;;;;;4906981;29;37521;-77
2023/04/04 08:14:14;;;;;;;8.17;3.70;;;5.60;99.90;;;;;;4912146;29;38062;-77
2023/04/04 08:16:40;;;;;;;5.07;3.03;;;5.70;99.90;;;;;;4905981;29;37309;-78
2023/04/04 08:19:07;;;;;;;7.93;3.43;;;5.80;99.90;;;;;;4909359;29;36315;-79
2023/04/04 08:21:33;;;;;;;7.07;3.70;;;6.00;99.90;;;;;;4901904;29;38072;-77
2023/04/04 08:23:59;;;;;;;7.17;2.50;;;6.10;99.90;;;;;;4908437;29;39403;-77
2023/04/04 08:26:25;;;;;;;4.70;2.40;;;6.20;99.90;;;;;;4910871;29;38350;-79
2023/04/04 08:28:51;;;;;;;5.93;2.37;;;6.40;99.90;;;;;;4907108;29;35956;-78
2023/04/04 08:31:17;;;;;;;8.07;2.60;;;6.60;99.90;;;;;;4903038;29;39341;-77
2023/04/04 08:33:44;;;;;;;7.43;2.20;;;6.80;99.90;;;;;;4908034;29;39827;-76
2023/04/04 08:36:10;;;;;;;7.93;3.00;;;7.10;99.90;;;;;;4907088;29;37555;-76
2023/04/04 08:38:36;;;;;;;4.83;2.50;;;7.20;99.90;;;;;;4908376;29;37143;-75
2023/04/04 08:41:02;;;;;;;3.37;2.40;;;7.30;99.90;;;;;;4913716;28;38352;-78
2023/04/04 08:43:34;;;;;;;4.60;2.40;;;7.20;99.90;;;;;;4907981;29;39697;-78
2023/04/04 08:46:03;;;;;;;6.00;2.50;;;7.40;99.90;;;;;;4908495;29;39496;-79
2023/04/04 08:48:30;;;;;;;4.33;2.27;;;7.30;99.90;;;;;;4895499;29;47248;-79
2023/04/04 08:50:59;;;;;;;7.17;2.20;;;7.40;99.90;;;;;;4920057;29;39387;-80
2023/04/04 08:53:28;;;;;;;7.00;2.47;;;7.40;99.90;;;;;;4909609;29;39105;-79
2023/04/04 08:55:56;;;;;;;6.87;2.50;;;7.50;99.90;;;;;;4918189;29;38853;-77
2023/04/04 08:58:22;;;;;;;6.13;2.33;;;7.60;99.90;;;;;;4907528;29;36069;-77
2023/04/04 09:00:52;;;;;;;5.50;2.43;;;7.70;99.90;;;;;;4893082;29;39221;-76
2023/04/04 09:03:31;;;;;;;4.40;2.10;;;7.80;99.90;;;;;;4916766;29;38516;-77
2023/04/04 09:05:58;;;;;;;6.63;1.80;;;7.90;99.90;;;;;;4927880;29;39062;-78
2023/04/04 09:08:25;;;;;;;5.10;1.90;;;8.00;99.90;;;;;;4920608;29;36136;-80
2023/04/04 09:10:52;;;;;;;5.30;2.23;;;8.20;99.90;;;;;;4916176;29;37971;-78
2023/04/04 09:13:18;;;;;;;5.70;2.23;;;8.30;99.90;;;;;;4915670;29;37628;-77
2023/04/04 09:15:51;;;;;;;5.03;2.10;;;8.40;99.90;;;;;;4896796;29;37637;-78
2023/04/04 09:18:17;;;;;;;7.17;2.20;;;8.60;99.90;;;;;;4910038;29;36433;-77
2023/04/04 09:20:48;;;;;;;5.53;2.07;;;8.50;99.90;;;;;;4913457;29;38919;-79
2023/04/04 09:23:19;;;;;;;4.27;2.30;;;8.50;99.90;;;;;;4895425;29;37897;-78
2023/04/04 09:25:47;;;;;;;6.13;2.70;;;8.50;99.90;;;;;;4908650;29;38434;-79
2023/04/04 09:28:39;;;;;;;4.87;2.40;;;8.50;99.90;;;;;;4928311;29;37283;-79
2023/04/04 09:31:08;;;;;;;8.17;2.40;;;8.50;99.90;;;;;;4925217;29;39249;-77
2023/04/04 09:33:35;;;;;;;5.47;2.10;;;8.70;99.90;;;;;;4903853;29;38787;-77
2023/04/04 09:36:08;;;;;;;5.43;2.23;;;8.80;99.90;;;;;;4915322;29;38389;-77
2023/04/04 09:38:45;;;;;;;5.63;2.17;;;8.90;99.90;;;;;;4927126;29;47413;-77
2023/04/04 09:41:14;;;;;;;6.07;2.33;;;8.90;99.90;;;;;;4898699;29;38726;-77
2023/04/04 09:43:43;;;;;;;4.80;2.20;;;9.00;99.90;;;;;;4920843;29;37841;-77
2023/04/04 09:46:09;;;;;;;7.60;2.43;;;9.10;99.90;;;;;;4914900;29;37330;-78
2023/04/04 09:48:36;;;;;;;5.73;2.73;;;9.00;99.90;;;;;;4926523;29;38176;-78
2023/04/04 09:51:06;;;;;;;4.00;2.17;;;9.10;99.90;;;;;;4918153;29;36845;-81
2023/04/04 09:53:37;;;;;;;5.03;2.33;;;9.40;99.90;;;;;;4941603;29;47426;-81
2023/04/04 09:56:03;;;;;;;4.40;2.23;;;9.60;99.90;;;;;;4940131;29;39187;-79
2023/04/04 09:58:35;;;;;;;4.83;2.90;;;9.80;99.90;;;;;;4911964;29;37466;-79
2023/04/04 10:01:07;;;;;;;5.13;2.20;;;9.80;99.90;;;;;;4916487;29;39455;-78
2023/04/04 10:03:36;;;;;;;6.03;2.90;;;9.80;99.90;;;;;;4920436;29;38475;-78
2023/04/04 10:06:09;;;;;;;6.10;2.30;;;9.90;99.90;;;;;;4916639;29;38250;-79
2023/04/04 10:08:38;;;;;;;7.95;2.80;;;10.00;99.90;;;;;;4905529;29;36140;-78
2023/04/04 10:11:05;;;;;;;5.97;2.42;;;10.20;99.90;;;;;;4907828;29;39245;-78
2023/04/04 10:13:35;;;;;;;6.87;2.20;;;10.20;99.90;;;;;;4918868;29;38440;-78
2023/04/04 10:16:02;;;;;;;7.15;2.70;;;10.30;99.90;;;;;;4931108;29;37535;-79
2023/04/04 10:18:31;;;;;;;5.13;2.45;;;10.40;99.90;;;;;;4909086;29;47234;-80
2023/04/04 10:20:59;;;;;;;4.05;2.30;;;10.70;99.90;;;;;;4924562;29;40219;-81
2023/04/04 10:23:26;;;;;;;6.93;2.67;;;10.50;99.90;;;;;;4927442;29;37873;-80
2023/04/04 10:25:57;;;;;;;7.65;2.50;;;10.70;99.90;;;;;;4939472;29;38417;-80
2023/04/04 10:28:25;;;;;;;8.18;2.35;;;10.70;99.90;;;;;;4929977;29;36100;-81
2023/04/04 10:31:21;;;;;;;5.03;2.15;;;10.70;99.90;;;;;;4936056;29;37776;-80
2023/04/04 10:33:51;;;;;;;6.45;2.72;;;10.60;99.90;;;;;;4913685;29;47158;-80
2023/04/04 10:36:23;;;;;;;5.32;2.30;;;10.70;99.90;;;;;;4913525;29;39603;-79
2023/04/04 10:39:13;;;;;;;4.90;2.22;;;10.70;99.90;;;;;;4929036;29;37287;-81
2023/04/04 10:41:40;;;;;;;4.60;2.28;;;10.50;99.90;;;;;;4922907;29;47150;-80
2023/04/04 10:44:30;;;;;;;4.50;2.67;;;11.10;99.90;;;;;;4923773;29;39010;-78
2023/04/04 10:47:03;;;;;;;6.88;2.38;;;10.80;99.90;;;;;;4920802;29;37724;-80
2023/04/04 10:49:30;;;;;;;4.55;2.22;;;10.90;99.90;;;;;;4899367;29;47355;-77
2023/04/04 10:51:57;;;;;;;6.80;2.50;;;11.10;99.90;;;;;;4926468;29;38696;-82
2023/04/04 10:54:25;;;;;;;4.95;2.95;;;11.00;99.90;;;;;;4932706;29;38862;-80
2023/04/04 10:56:52;;;;;;;4.35;2.55;;;10.90;99.90;;;;;;4931416;29;37980;-81
2023/04/04 10:59:18;;;;;;;6.38;3.00;;;10.90;99.90;;;;;;4941616;29;38307;-81
2023/04/04 11:02:01;;;;;;;6.43;2.65;;;11.10;99.90;;;;;;4934773;29;39021;-81
2023/04/04 11:04:37;;;;;;;4.00;2.83;;;11.30;99.90;;;;;;4915612;29;46682;-81
2023/04/04 11:07:15;;;;;;;3.30;2.50;;;11.40;99.90;;;;;;4920814;29;37494;-80
2023/04/04 11:09:55;;;;;;;3.83;2.22;;;11.10;99.90;;;;;;4910774;29;37425;-81
2023/04/04 11:12:43;;;;;;;6.32;2.63;;;11.00;99.90;;;;;;4939323;29;38861;-81
2023/04/04 11:15:13;;;;;;;6.20;2.78;;;11.50;99.90;;;;;;4938228;29;40403;-80
2023/04/04 11:18:04;;;;;;;3.35;2.10;;;11.50;99.90;;;;;;4936335;29;38468;-82
2023/04/04 11:20:33;;;;;;;5.75;2.53;;;11.60;99.90;;;;;;4943055;29;47542;-82
2023/04/04 11:23:07;;;;;;;6.65;2.42;;;11.70;99.90;;;;;;4956690;28;39185;-83
2023/04/04 11:25:40;;;;;;;6.10;2.55;;;11.30;99.90;;;;;;4921316;29;48119;-83
2023/04/04 11:28:14;;;;;;;6.40;2.30;;;11.10;99.90;;;;;;4923334;29;37156;-82
2023/04/04 11:30:49;;;;;;;5.13;2.35;;;11.00;99.90;;;;;;4939221;29;37865;-83
2023/04/04 11:33:26;;;;;;;4.35;2.05;;;10.90;99.90;;;;;;4946187;29;38479;-82
2023/04/04 11:35:58;;;;;;;4.32;2.30;;;11.20;99.90;;;;;;4940796;29;39242;-81
2023/04/04 11:38:28;;;;;;;4.93;2.60;;;11.70;99.90;;;;;;4939540;29;39923;-82
2023/04/04 11:40:56;;;;;;;4.78;2.78;;;11.90;99.90;;;;;;4912510;29;36830;-82
2023/04/04 11:43:25;;;;;;;6.85;2.60;;;11.80;99.90;;;;;;4930655;29;38408;-82
2023/04/04 11:45:52;;;;;;;5.60;3.10;;;11.60;99.90;;;;;;4956057;28;40381;-82
2023/04/04 11:48:49;;;;;;;4.03;2.80;;;11.40;99.90;;;;;;4939822;29;38533;-82
2023/04/04 11:51:17;;;;;;;5.03;2.60;;;11.20;99.90;;;;;;4933124;29;38746;-82
2023/04/04 11:53:46;;;;;;;5.40;2.78;;;11.50;99.90;;;;;;4932626;29;39041;-83
2023/04/04 11:56:15;;;;;;;6.88;3.47;;;11.90;99.90;;;;;;4924124;29;36994;-81
2023/04/04 11:58:46;;;;;;;6.18;3.83;;;12.30;99.90;;;;;;4921015;29;37103;-84
2023/04/04 12:01:13;;;;;;;7.32;3.25;;;12.60;99.90;;;;;;4907970;29;36954;-85
2023/04/04 12:03:40;;;;;;;7.38;3.17;;;12.50;99.90;;;;;;4911869;29;38686;-83
2023/04/04 12:06:06;;;;;;;4.57;2.30;;;12.60;99.90;;;;;;4919590;29;37548;-85
2023/04/04 12:08:32;;;;;;;4.20;2.53;;;12.70;99.90;;;;;;4916652;29;38670;-84
2023/04/04 12:11:03;;;;;;;4.75;2.20;;;12.70;99.90;;;;;;4910708;29;36779;-83
2023/04/04 12:13:30;;;;;;;6.10;2.75;;;12.50;99.90;;;;;;4896719;29;47104;-81
2023/04/04 12:15:56;;;;;;;4.22;2.80;;;12.00;99.90;;;;;;4921218;29;37752;-82
2023/04/04 12:18:22;;;;;;;6.65;2.50;;;11.50;99.90;;;;;;4936378;29;38543;-83
2023/04/04 12:20:52;;;;;;;5.25;2.25;;;11.70;99.90;;;;;;4929904;29;36260;-82
2023/04/04 12:23:18;;;;;;;5.15;2.40;;;12.00;99.90;;;;;;4919641;29;38938;-82
2023/04/04 12:25:48;;;;;;;6.88;2.83;;;12.30;99.90;;;;;;4926105;29;37643;-81
2023/04/04 12:28:15;;;;;;;5.00;2.50;;;12.60;99.90;;;;;;4921746;29;39028;-81
2023/04/04 12:30:41;;;;;;;6.05;2.90;;;12.10;99.90;;;;;;4916023;29;35980;-81
2023/04/04 12:33:07;;;;;;;5.03;2.40;;;11.90;99.90;;;;;;4898285;29;38006;-80
2023/04/04 12:35:33;;;;;;;4.97;2.75;;;11.60;99.90;;;;;;4924564;29;38858;-83
2023/04/04 12:38:09;;;;;;;6.50;2.85;;;12.20;99.90;;;;;;4906720;29;38423;-84
2023/04/04 12:40:37;;;;;;;6.25;2.50;;;12.80;99.90;;;;;;4916853;29;50124;-87
2023/04/04 12:43:09;;;;;;;4.88;2.78;;;13.10;99.90;;;;;;4895352;29;39167;-88
2023/04/04 12:45:39;;;;;;;6.22;2.92;;;13.40;99.90;;;;;;4902544;29;38031;-83
2023/04/04 12:48:13;;;;;;;4.68;2.70;;;13.20;99.90;;;;;;4890566;29;37577;-85
2023/04/04 12:50:52;;;;;;;9.43;2.83;;;13.20;99.90;;;;;;4904389;29;37655;-85
2023/04/04 12:53:31;;;;;;;6.72;3.05;;;13.20;99.90;;;;;;4895934;29;39686;-85
2023/04/04 12:56:03;;;;;;;5.25;2.17;;;12.60;99.90;;;;;;4886408;29;39206;-84
2023/04/04 12:58:31;;;;;;;4.68;2.55;;;12.70;99.90;;;;;;4914894;29;48728;-88